Time;durP1;ratioP1;P1;durP2;ratioP2;P2;SDS_P1;SDS_P2;PMS_P1;PMS_P2;Temp;Humidity;BMP_temperature;BMP_pressure;BME280_temperature;BME280_humidity;BME280_pressure;Samples;Min_cycle;Max_cycle;Signal;HPM_P1;HPM_P2
2021/01/16 00:00:31;;;;;;;14.68;7.55;;;3.40;87.10;;;;;;5111828;28;20112;-70
2021/01/16 00:02:57;;;;;;;14.80;7.35;;;3.40;86.80;;;;;;5112233;28;20047;-71
2021/01/16 00:05:25;;;;;;;14.70;8.20;;;3.40;87.10;;;;;;5112053;28;20498;-70
2021/01/16 00:08:10;;;;;;;10.75;7.78;;;3.40;87.40;;;;;;5111937;28;20369;-73
2021/01/16 00:10:37;;;;;;;13.68;8.10;;;3.30;87.60;;;;;;5111824;28;20065;-71
2021/01/16 00:13:04;;;;;;;14.93;7.55;;;3.30;87.50;;;;;;5111789;28;20072;-71
2021/01/16 00:15:30;;;;;;;13.02;7.28;;;3.30;87.20;;;;;;5112194;28;20016;-71
2021/01/16 00:18:00;;;;;;;17.40;8.40;;;3.30;86.90;;;;;;5111701;28;20387;-70
2021/01/16 00:20:26;;;;;;;14.75;8.35;;;3.30;86.80;;;;;;5112250;28;20023;-71
2021/01/16 00:22:52;;;;;;;11.32;7.68;;;3.30;86.70;;;;;;5112323;28;20039;-71
2021/01/16 00:25:17;;;;;;;19.67;7.82;;;3.30;86.50;;;;;;5111880;28;20018;-70
2021/01/16 00:27:44;;;;;;;12.05;7.50;;;3.40;86.80;;;;;;5111369;28;20032;-71
2021/01/16 00:30:10;;;;;;;11.63;7.93;;;3.30;86.70;;;;;;5111558;28;20020;-70
2021/01/16 00:32:38;;;;;;;12.27;7.97;;;3.30;86.80;;;;;;5111507;28;20567;-71
2021/01/16 00:35:07;;;;;;;12.98;7.68;;;3.30;86.80;;;;;;5111765;28;20521;-71
2021/01/16 00:37:33;;;;;;;9.85;6.10;;;3.30;87.10;;;;;;5111745;28;20015;-70
2021/01/16 00:39:59;;;;;;;9.32;6.35;;;3.30;87.00;;;;;;5111760;28;20020;-70
2021/01/16 00:42:25;;;;;;;10.93;7.35;;;3.40;87.10;;;;;;5111919;28;20027;-70
2021/01/16 00:44:50;;;;;;;9.48;7.13;;;3.40;88.50;;;;;;5093765;28;20032;-70
2021/01/16 00:47:16;;;;;;;14.63;8.07;;;3.30;87.90;;;;;;5111494;28;20521;-70
2021/01/16 00:49:42;;;;;;;11.70;6.55;;;3.30;88.10;;;;;;5112527;28;20514;-71
2021/01/16 00:52:08;;;;;;;9.60;5.63;;;3.40;88.10;;;;;;5115003;28;20056;-71
2021/01/16 00:54:33;;;;;;;9.18;6.20;;;3.40;86.80;;;;;;5115215;28;20082;-70
2021/01/16 00:56:59;;;;;;;10.13;6.35;;;3.50;85.80;;;;;;5115176;28;20055;-70
2021/01/16 00:59:25;;;;;;;8.75;5.90;;;3.50;85.90;;;;;;5115139;28;20023;-70
2021/01/16 01:01:50;;;;;;;9.00;6.00;;;3.50;86.10;;;;;;5114920;28;20054;-70
2021/01/16 01:04:16;;;;;;;10.65;6.50;;;3.50;87.20;;;;;;5114876;28;20051;-70
2021/01/16 01:06:42;;;;;;;8.43;6.00;;;3.50;87.30;;;;;;5114936;28;20460;-72
2021/01/16 01:09:07;;;;;;;10.77;6.38;;;3.50;86.00;;;;;;5114909;28;20106;-72
2021/01/16 01:11:33;;;;;;;9.82;6.43;;;3.50;86.30;;;;;;5115079;28;20066;-72
2021/01/16 01:13:59;;;;;;;9.82;6.43;;;3.50;85.70;;;;;;5115109;28;20032;-72
2021/01/16 01:16:24;;;;;;;8.75;5.72;;;3.50;85.70;;;;;;5114500;28;20103;-72
2021/01/16 01:18:50;;;;;;;12.40;7.20;;;3.50;85.90;;;;;;5114896;28;20051;-71
2021/01/16 01:21:16;;;;;;;11.10;6.53;;;3.50;86.20;;;;;;5114784;28;20020;-70
2021/01/16 01:23:41;;;;;;;10.57;5.95;;;3.50;86.10;;;;;;5114951;28;20019;-71
2021/01/16 01:26:07;;;;;;;8.68;6.40;;;3.40;86.00;;;;;;5112952;28;20035;-71
2021/01/16 01:28:33;;;;;;;12.43;6.05;;;3.40;86.20;;;;;;5098118;28;20028;-72
2021/01/16 01:30:58;;;;;;;8.23;6.18;;;3.30;86.30;;;;;;5103801;28;20024;-71
2021/01/16 01:33:24;;;;;;;10.10;6.63;;;3.30;86.50;;;;;;5093898;28;20016;-71
2021/01/16 01:35:50;;;;;;;9.57;6.13;;;3.30;86.80;;;;;;5094296;28;20069;-72
2021/01/16 01:38:17;;;;;;;10.52;6.97;;;3.20;86.80;;;;;;5094009;28;20020;-71
2021/01/16 01:40:43;;;;;;;10.85;6.45;;;3.20;87.10;;;;;;5093501;28;20024;-71
2021/01/16 01:43:09;;;;;;;10.05;6.72;;;3.20;87.40;;;;;;5093443;28;20392;-72
2021/01/16 01:45:35;;;;;;;9.20;6.20;;;3.20;87.40;;;;;;5093810;28;20061;-71
2021/01/16 01:48:01;;;;;;;18.20;6.60;;;3.10;87.30;;;;;;5092914;28;20043;-69
2021/01/16 01:50:29;;;;;;;11.05;6.45;;;3.10;87.60;;;;;;5092397;28;20511;-72
2021/01/16 01:52:56;;;;;;;9.88;6.95;;;3.10;87.70;;;;;;5093263;28;20032;-72
2021/01/16 01:55:23;;;;;;;12.25;7.50;;;3.00;88.00;;;;;;5093760;28;20031;-73
2021/01/16 01:57:56;;;;;;;15.38;6.65;;;3.10;88.80;;;;;;5094009;28;20096;-71
2021/01/16 02:00:23;;;;;;;8.13;5.72;;;3.10;87.90;;;;;;5093368;28;20091;-71
2021/01/16 02:02:50;;;;;;;12.32;6.57;;;3.10;87.60;;;;;;5093465;28;20048;-70
2021/01/16 02:05:16;;;;;;;8.32;6.30;;;3.10;87.50;;;;;;5093389;28;20019;-71
2021/01/16 02:07:42;;;;;;;9.77;6.70;;;3.20;87.50;;;;;;5093103;28;20038;-69
2021/01/16 02:10:24;;;;;;;10.05;5.97;;;3.20;87.70;;;;;;5100063;28;20015;-72
2021/01/16 02:12:54;;;;;;;10.98;6.32;;;3.20;87.50;;;;;;5113656;28;20043;-72
2021/01/16 02:15:36;;;;;;;13.77;6.68;;;3.20;87.50;;;;;;5113863;28;20101;-71
2021/01/16 02:18:37;;;;;;;12.32;6.38;;;3.20;87.20;;;;;;5113417;28;20106;-71
2021/01/16 02:21:05;;;;;;;10.07;6.78;;;3.10;87.80;;;;;;5113335;28;20092;-71
2021/01/16 02:23:30;;;;;;;10.43;6.80;;;3.10;87.70;;;;;;5113132;28;20039;-71
2021/01/16 02:26:14;;;;;;;10.70;7.10;;;3.10;88.00;;;;;;5113626;28;20488;-71
2021/01/16 02:28:56;;;;;;;11.32;7.75;;;3.00;88.20;;;;;;5113046;28;20027;-70
2021/01/16 02:31:26;;;;;;;12.70;7.30;;;3.00;88.10;;;;;;5113407;28;20032;-70
2021/01/16 02:33:54;;;;;;;13.40;6.90;;;3.00;88.40;;;;;;5113292;28;20031;-71
2021/01/16 02:36:38;;;;;;;12.38;8.02;;;3.00;88.50;;;;;;5113338;28;20027;-70
2021/01/16 02:39:22;;;;;;;10.65;7.45;;;3.00;88.50;;;;;;5113253;28;20114;-70
2021/01/16 02:41:58;;;;;;;14.52;7.93;;;2.90;88.50;;;;;;5112865;28;20022;-70
2021/01/16 02:44:36;;;;;;;9.77;6.90;;;3.00;88.50;;;;;;5113236;28;20106;-71
2021/01/16 02:47:22;;;;;;;9.25;6.10;;;3.00;88.70;;;;;;5112748;28;20081;-70
2021/01/16 02:49:52;;;;;;;8.82;6.13;;;3.00;88.80;;;;;;5113109;28;20610;-71
2021/01/16 02:52:20;;;;;;;11.23;6.28;;;3.00;88.80;;;;;;5112930;28;20027;-70
2021/01/16 02:54:47;;;;;;;10.75;6.05;;;3.00;88.20;;;;;;5112623;28;20065;-70
2021/01/16 02:57:14;;;;;;;11.40;6.50;;;3.00;88.40;;;;;;5112533;28;20027;-69
2021/01/16 02:59:45;;;;;;;9.00;5.85;;;3.00;89.20;;;;;;5112709;28;20039;-70
2021/01/16 03:02:12;;;;;;;9.07;6.20;;;3.00;89.40;;;;;;5101445;28;20040;-71
2021/01/16 03:04:39;;;;;;;8.55;6.10;;;3.00;89.40;;;;;;5109268;28;20016;-72
2021/01/16 03:07:07;;;;;;;9.55;6.95;;;3.00;89.00;;;;;;5111959;28;20405;-70
2021/01/16 03:09:33;;;;;;;9.57;6.43;;;2.90;89.10;;;;;;5092455;28;20020;-71
2021/01/16 03:12:00;;;;;;;8.93;6.10;;;3.00;89.20;;;;;;5084829;28;20016;-71
2021/01/16 03:14:30;;;;;;;9.23;5.63;;;2.90;88.80;;;;;;5111982;28;20046;-70
2021/01/16 03:17:09;;;;;;;10.98;6.65;;;2.90;88.80;;;;;;5112340;28;20027;-71
2021/01/16 03:19:38;;;;;;;15.95;8.45;;;2.80;88.80;;;;;;5111805;28;20054;-71
2021/01/16 03:22:19;;;;;;;13.75;7.40;;;2.80;89.10;;;;;;5094107;28;20122;-71
2021/01/16 03:24:46;;;;;;;8.75;6.10;;;2.80;89.10;;;;;;5112098;28;20355;-70
2021/01/16 03:27:12;;;;;;;11.43;6.90;;;2.80;88.90;;;;;;5112262;28;20035;-71
2021/01/16 03:29:38;;;;;;;10.88;6.40;;;2.80;89.30;;;;;;5108598;28;20051;-71
2021/01/16 03:32:05;;;;;;;8.85;6.10;;;2.80;90.00;;;;;;5091276;28;20055;-73
2021/01/16 03:34:31;;;;;;;8.13;5.43;;;2.80;89.30;;;;;;5091509;28;20020;-73
2021/01/16 03:36:57;;;;;;;9.52;6.35;;;2.80;89.30;;;;;;5097065;28;20531;-72
2021/01/16 03:39:22;;;;;;;10.40;5.93;;;2.80;89.30;;;;;;5111955;28;20027;-72
2021/01/16 03:41:48;;;;;;;8.07;6.38;;;2.70;89.20;;;;;;5111829;28;20023;-72
2021/01/16 03:44:14;;;;;;;9.38;6.60;;;2.80;89.50;;;;;;5111973;28;20023;-73
2021/01/16 03:46:39;;;;;;;9.82;6.30;;;2.70;89.70;;;;;;5111798;28;20024;-73
2021/01/16 03:49:05;;;;;;;9.43;6.38;;;2.80;90.00;;;;;;5112089;28;20032;-73
2021/01/16 03:51:31;;;;;;;9.48;6.53;;;2.80;90.10;;;;;;5112387;28;20111;-72
2021/01/16 03:53:56;;;;;;;8.70;5.97;;;2.80;90.10;;;;;;5111598;28;20026;-73
2021/01/16 03:56:22;;;;;;;7.55;5.82;;;2.80;90.20;;;;;;5111371;28;20054;-73
2021/01/16 03:58:48;;;;;;;12.20;7.03;;;2.80;90.20;;;;;;5111296;28;20019;-72
2021/01/16 04:01:13;;;;;;;9.20;6.35;;;2.80;90.20;;;;;;5111669;28;20107;-73
2021/01/16 04:03:39;;;;;;;15.77;7.20;;;2.80;90.20;;;;;;5111689;28;20035;-72
2021/01/16 04:06:05;;;;;;;9.40;6.43;;;2.80;90.40;;;;;;5111647;28;20024;-73
2021/01/16 04:08:30;;;;;;;9.57;6.45;;;2.80;90.50;;;;;;5111289;28;20394;-72
2021/01/16 04:10:56;;;;;;;9.60;6.38;;;2.80;90.60;;;;;;5111376;28;20024;-72
2021/01/16 04:13:22;;;;;;;9.68;6.32;;;2.80;90.60;;;;;;5093457;28;20049;-73
2021/01/16 04:15:47;;;;;;;12.48;6.28;;;2.80;90.50;;;;;;5111555;28;20076;-73
2021/01/16 04:18:13;;;;;;;9.60;6.40;;;2.80;90.50;;;;;;5111362;28;20028;-73
2021/01/16 04:20:39;;;;;;;9.75;6.38;;;2.80;90.40;;;;;;5111472;28;20031;-72
2021/01/16 04:23:04;;;;;;;9.05;6.28;;;2.80;90.40;;;;;;5093330;28;20464;-71
2021/01/16 04:25:30;;;;;;;8.40;6.00;;;2.80;90.40;;;;;;5113367;28;20034;-72
2021/01/16 04:27:56;;;;;;;14.02;6.63;;;2.80;90.50;;;;;;5115058;28;20106;-73
2021/01/16 04:30:22;;;;;;;11.95;6.55;;;2.80;90.70;;;;;;5115360;28;20107;-70
2021/01/16 04:32:51;;;;;;;9.85;6.32;;;2.80;90.70;;;;;;5114678;28;20035;-72
2021/01/16 04:35:16;;;;;;;9.82;6.80;;;2.80;90.70;;;;;;5115639;28;20306;-72
2021/01/16 04:37:44;;;;;;;10.98;6.60;;;2.80;90.80;;;;;;5097032;28;20019;-73
2021/01/16 04:40:10;;;;;;;8.68;6.10;;;2.80;90.70;;;;;;5115746;28;20447;-72
2021/01/16 04:42:44;;;;;;;10.55;6.72;;;2.80;90.70;;;;;;5115795;28;20543;-73
2021/01/16 04:45:13;;;;;;;8.50;5.68;;;2.70;90.70;;;;;;5115435;28;20031;-72
2021/01/16 04:47:41;;;;;;;11.93;5.90;;;2.70;90.70;;;;;;5115490;28;20584;-73
2021/01/16 04:50:14;;;;;;;21.90;11.35;;;2.70;90.70;;;;;;5114919;28;20123;-73
2021/01/16 04:52:41;;;;;;;15.05;8.27;;;2.80;90.90;;;;;;5115478;28;20023;-72
2021/01/16 04:55:09;;;;;;;9.73;6.07;;;2.70;91.20;;;;;;5114931;28;20468;-73
2021/01/16 04:57:37;;;;;;;9.18;5.97;;;2.80;90.50;;;;;;5114638;28;20030;-72
2021/01/16 05:00:08;;;;;;;7.57;5.43;;;2.80;90.40;;;;;;5114583;28;20472;-72
2021/01/16 05:02:39;;;;;;;10.73;6.28;;;2.80;90.40;;;;;;5114854;28;20051;-72
2021/01/16 05:05:12;;;;;;;11.32;5.90;;;2.80;90.30;;;;;;5114653;28;20072;-73
2021/01/16 05:07:38;;;;;;;10.77;5.85;;;2.80;90.00;;;;;;5114921;28;20114;-72
2021/01/16 05:10:07;;;;;;;8.18;5.70;;;2.80;89.80;;;;;;5114621;28;20027;-73
2021/01/16 05:13:09;;;;;;;13.68;6.15;;;2.80;89.50;;;;;;5114380;28;20032;-72
2021/01/16 05:15:37;;;;;;;8.32;5.20;;;2.80;89.30;;;;;;5114595;28;20019;-72
2021/01/16 05:18:05;;;;;;;9.55;5.75;;;2.80;89.30;;;;;;5114740;28;20031;-71
2021/01/16 05:20:32;;;;;;;8.40;5.88;;;2.80;89.30;;;;;;5114700;28;20012;-72
2021/01/16 05:23:16;;;;;;;10.95;6.00;;;2.80;89.60;;;;;;5114466;28;20111;-73
2021/01/16 05:25:43;;;;;;;8.48;6.15;;;2.80;90.00;;;;;;5114494;28;20016;-73
2021/01/16 05:28:10;;;;;;;10.02;6.30;;;2.80;90.10;;;;;;5114217;28;20460;-72
2021/01/16 05:30:53;;;;;;;10.80;6.30;;;2.80;90.20;;;;;;5114233;28;20024;-73
2021/01/16 05:33:20;;;;;;;7.95;5.85;;;2.80;90.20;;;;;;5086472;28;20379;-73
2021/01/16 05:35:45;;;;;;;8.85;5.95;;;2.80;90.30;;;;;;5095641;28;20118;-73
2021/01/16 05:38:13;;;;;;;9.98;5.97;;;2.80;90.40;;;;;;5113790;28;20111;-73
2021/01/16 05:40:40;;;;;;;8.88;5.82;;;2.70;90.40;;;;;;5113648;28;20020;-72
2021/01/16 05:43:06;;;;;;;8.25;5.25;;;2.80;90.50;;;;;;5096683;28;20028;-72
2021/01/16 05:45:34;;;;;;;10.60;5.25;;;2.70;90.50;;;;;;5093658;28;20028;-72
2021/01/16 05:48:04;;;;;;;9.15;5.57;;;2.70;90.10;;;;;;5093331;28;20085;-72
2021/01/16 05:50:30;;;;;;;6.53;4.80;;;2.70;90.10;;;;;;5093163;28;20026;-70
2021/01/16 05:52:57;;;;;;;10.48;5.32;;;2.60;90.20;;;;;;5093315;28;20028;-70
2021/01/16 05:55:22;;;;;;;7.35;4.93;;;2.60;90.30;;;;;;5093482;28;20440;-70
2021/01/16 05:57:49;;;;;;;8.57;5.82;;;2.60;90.30;;;;;;5093383;28;20066;-70
2021/01/16 06:00:25;;;;;;;7.70;5.63;;;2.60;90.30;;;;;;5093183;28;20016;-70
2021/01/16 06:02:54;;;;;;;15.45;6.15;;;2.60;90.30;;;;;;5092697;28;20044;-71
2021/01/16 06:05:24;;;;;;;8.18;5.47;;;2.60;90.20;;;;;;5092879;28;20024;-70
2021/01/16 06:07:52;;;;;;;10.57;5.60;;;2.70;90.30;;;;;;5092525;28;20491;-71
2021/01/16 06:10:19;;;;;;;12.05;5.57;;;2.70;90.30;;;;;;5093062;28;20090;-71
2021/01/16 06:12:47;;;;;;;8.85;5.53;;;2.70;90.20;;;;;;5112811;28;20419;-72
2021/01/16 06:15:16;;;;;;;10.77;6.28;;;2.70;90.10;;;;;;5113523;28;20024;-72
2021/01/16 06:17:50;;;;;;;9.13;5.85;;;2.70;90.20;;;;;;5113057;28;20510;-74
2021/01/16 06:20:22;;;;;;;12.95;5.57;;;2.70;90.20;;;;;;5113105;28;20028;-71
2021/01/16 06:22:51;;;;;;;9.25;5.20;;;2.70;90.00;;;;;;5112733;28;20019;-72
2021/01/16 06:25:23;;;;;;;8.45;5.35;;;2.70;90.00;;;;;;5113032;28;20019;-73
2021/01/16 06:27:50;;;;;;;9.35;5.95;;;2.70;89.90;;;;;;5113083;28;20570;-72
2021/01/16 06:30:19;;;;;;;7.00;5.10;;;2.70;89.70;;;;;;5112808;28;20039;-72
2021/01/16 06:32:47;;;;;;;11.73;7.32;;;2.70;89.20;;;;;;5113405;28;20043;-72
2021/01/16 06:35:13;;;;;;;6.05;5.07;;;2.70;89.10;;;;;;5094312;28;20020;-71
2021/01/16 06:37:47;;;;;;;8.70;5.95;;;2.60;88.80;;;;;;5112497;28;20368;-71
2021/01/16 06:40:30;;;;;;;11.57;6.88;;;2.60;88.80;;;;;;5112747;28;20486;-72
2021/01/16 06:42:57;;;;;;;10.57;5.85;;;2.60;89.20;;;;;;5112522;28;20055;-72
2021/01/16 06:45:25;;;;;;;8.63;6.32;;;2.60;88.90;;;;;;5113122;28;20019;-73
2021/01/16 06:47:58;;;;;;;21.92;10.85;;;2.70;89.00;;;;;;5112208;28;20035;-71
2021/01/16 06:50:24;;;;;;;17.02;9.10;;;2.70;89.20;;;;;;5112616;28;20071;-72
2021/01/16 06:52:50;;;;;;;12.77;8.30;;;2.60;89.40;;;;;;5112400;28;20106;-72
2021/01/16 06:55:18;;;;;;;9.57;6.78;;;2.60;89.60;;;;;;5112264;28;20094;-73
2021/01/16 06:57:44;;;;;;;10.02;7.32;;;2.60;89.70;;;;;;5112336;28;20023;-72
2021/01/16 07:00:11;;;;;;;13.43;8.05;;;2.50;90.00;;;;;;5112369;28;20022;-70
2021/01/16 07:02:38;;;;;;;8.68;6.10;;;2.40;90.00;;;;;;5112021;28;20066;-72
2021/01/16 07:05:08;;;;;;;10.00;6.40;;;2.40;90.10;;;;;;5112087;28;20094;-72
2021/01/16 07:07:36;;;;;;;9.38;5.90;;;2.40;90.10;;;;;;5111963;28;20035;-71
2021/01/16 07:10:10;;;;;;;9.50;6.05;;;2.40;90.20;;;;;;5111877;28;20012;-70
2021/01/16 07:12:40;;;;;;;10.73;5.88;;;2.60;90.00;;;;;;5112258;28;20023;-71
2021/01/16 07:15:07;;;;;;;11.38;6.35;;;3.00;89.50;;;;;;5112722;28;20047;-70
2021/01/16 07:17:33;;;;;;;8.60;6.13;;;3.20;88.70;;;;;;5112339;28;20023;-73
2021/01/16 07:20:00;;;;;;;7.85;6.00;;;3.50;88.30;;;;;;5112741;28;20030;-70
2021/01/16 07:22:27;;;;;;;9.85;6.22;;;3.80;87.60;;;;;;5112154;28;20086;-74
2021/01/16 07:24:55;;;;;;;10.40;6.75;;;4.00;87.00;;;;;;5081688;28;20110;-73
2021/01/16 07:27:21;;;;;;;9.48;6.45;;;4.20;86.40;;;;;;5091635;28;20028;-72
2021/01/16 07:29:47;;;;;;;8.57;6.18;;;4.40;85.90;;;;;;5091901;28;20031;-72
2021/01/16 07:32:14;;;;;;;12.73;6.90;;;4.50;85.70;;;;;;5091894;28;20054;-70
2021/01/16 07:34:49;;;;;;;10.15;6.85;;;4.50;85.50;;;;;;5091855;28;20148;-71
2021/01/16 07:37:17;;;;;;;12.73;7.75;;;4.60;85.40;;;;;;5091451;28;20103;-70
2021/01/16 07:39:43;;;;;;;68.28;33.35;;;4.90;85.60;;;;;;5091552;28;20012;-70
2021/01/16 07:42:13;;;;;;;20.98;11.65;;;5.10;84.90;;;;;;5091365;28;20115;-73
2021/01/16 07:44:46;;;;;;;22.42;12.00;;;5.40;84.30;;;;;;5091745;28;20608;-73
2021/01/16 07:47:23;;;;;;;21.98;10.18;;;5.60;84.10;;;;;;5094268;28;20028;-71
2021/01/16 07:49:57;;;;;;;17.63;12.60;;;5.90;83.40;;;;;;5091082;28;20028;-71
2021/01/16 07:52:27;;;;;;;17.27;11.80;;;6.00;82.90;;;;;;5091171;28;20020;-71
2021/01/16 07:55:07;;;;;;;16.38;11.18;;;6.20;83.00;;;;;;5091410;28;20099;-70
2021/01/16 07:57:34;;;;;;;16.83;11.93;;;6.70;81.70;;;;;;5091190;28;20024;-71
2021/01/16 08:00:08;;;;;;;22.40;11.80;;;7.00;80.80;;;;;;5094211;28;20024;-71
2021/01/16 08:03:04;;;;;;;18.73;12.32;;;7.20;80.60;;;;;;5095188;28;20385;-71
2021/01/16 08:05:50;;;;;;;15.52;8.68;;;7.30;80.20;;;;;;5095621;28;20019;-71
2021/01/16 08:08:44;;;;;;;20.70;13.50;;;7.60;80.00;;;;;;5095257;28;20400;-70
2021/01/16 08:11:13;;;;;;;27.65;13.95;;;7.60;79.60;;;;;;5071374;28;20387;-70
2021/01/16 08:13:39;;;;;;;14.43;8.43;;;7.80;78.90;;;;;;5097476;28;20016;-71
2021/01/16 08:16:04;;;;;;;15.00;9.02;;;7.80;78.70;;;;;;5095567;28;20123;-71
2021/01/16 08:18:33;;;;;;;22.55;13.35;;;8.20;77.60;;;;;;5095294;28;20380;-71
2021/01/16 08:21:08;;;;;;;18.33;10.82;;;8.30;77.90;;;;;;5094970;28;20024;-71
2021/01/16 08:23:47;;;;;;;22.38;13.65;;;8.40;76.20;;;;;;5095169;28;20032;-71
2021/01/16 08:26:13;;;;;;;14.13;7.70;;;8.50;76.50;;;;;;5095159;28;20024;-71
2021/01/16 08:28:39;;;;;;;15.07;9.40;;;8.90;75.30;;;;;;5095212;28;20097;-71
2021/01/16 08:31:05;;;;;;;15.95;8.73;;;9.20;74.80;;;;;;5094888;28;20476;-71
2021/01/16 08:33:35;;;;;;;12.63;8.05;;;9.60;74.60;;;;;;5095292;28;20063;-71
2021/01/16 08:36:17;;;;;;;16.73;10.35;;;10.00;73.60;;;;;;5094848;28;20068;-71
2021/01/16 08:38:45;;;;;;;21.00;12.50;;;10.10;72.90;;;;;;5095275;28;20073;-71
2021/01/16 08:41:10;;;;;;;21.88;13.30;;;10.30;72.00;;;;;;5094572;28;20532;-71
2021/01/16 08:43:37;;;;;;;20.42;12.98;;;10.20;72.80;;;;;;5098917;28;20115;-71
2021/01/16 08:46:09;;;;;;;16.80;12.50;;;10.50;72.40;;;;;;5094465;28;20046;-71
2021/01/16 08:48:36;;;;;;;13.27;8.00;;;11.10;70.90;;;;;;5095063;28;20035;-70
2021/01/16 08:51:21;;;;;;;9.98;7.65;;;11.40;70.20;;;;;;5094795;28;20024;-71
2021/01/16 08:53:47;;;;;;;8.85;6.80;;;11.80;68.50;;;;;;5076413;28;20027;-71
2021/01/16 08:56:22;;;;;;;14.13;9.57;;;11.80;67.60;;;;;;5094436;28;20020;-71
2021/01/16 08:58:49;;;;;;;9.70;6.13;;;11.70;67.50;;;;;;5059626;28;20024;-71
2021/01/16 09:01:16;;;;;;;11.27;7.50;;;11.60;67.70;;;;;;5100672;28;20011;-71
2021/01/16 09:03:41;;;;;;;9.52;6.18;;;11.80;67.90;;;;;;5112212;28;20019;-71
2021/01/16 09:06:07;;;;;;;9.55;5.93;;;12.00;67.50;;;;;;5108851;28;20089;-71
2021/01/16 09:08:33;;;;;;;14.88;8.00;;;12.40;66.50;;;;;;5103541;28;20027;-71
2021/01/16 09:11:13;;;;;;;12.30;8.25;;;12.70;66.30;;;;;;5110742;28;20016;-71
2021/01/16 09:13:44;;;;;;;16.67;9.50;;;12.50;66.20;;;;;;5110653;28;20123;-71
2021/01/16 09:16:35;;;;;;;14.18;8.85;;;12.30;66.60;;;;;;5108171;28;20425;-71
2021/01/16 09:19:01;;;;;;;12.85;7.75;;;12.30;66.90;;;;;;5110785;28;20028;-71
2021/01/16 09:21:27;;;;;;;10.88;6.18;;;12.40;65.80;;;;;;5111249;28;20432;-71
2021/01/16 09:23:56;;;;;;;9.77;6.40;;;12.60;66.20;;;;;;5108278;28;20020;-72
2021/01/16 09:26:24;;;;;;;12.30;6.20;;;12.80;64.70;;;;;;5104967;28;20043;-72
2021/01/16 09:29:04;;;;;;;11.07;7.60;;;13.30;64.20;;;;;;5102095;28;20024;-72
2021/01/16 09:31:30;;;;;;;12.68;6.18;;;13.50;62.80;;;;;;5110513;28;20016;-72
2021/01/16 09:34:10;;;;;;;7.72;5.78;;;14.10;62.80;;;;;;5103648;28;20351;-72
2021/01/16 09:36:47;;;;;;;14.57;11.77;;;14.80;61.00;;;;;;5094366;28;20050;-72
2021/01/16 09:39:17;;;;;;;11.77;8.32;;;15.10;60.30;;;;;;5094160;28;20035;-72
2021/01/16 09:41:44;;;;;;;14.93;5.63;;;15.30;60.20;;;;;;5075655;28;20102;-73
2021/01/16 09:44:10;;;;;;;8.57;6.45;;;15.40;61.00;;;;;;5094152;28;20035;-72
2021/01/16 09:46:38;;;;;;;13.52;6.90;;;15.50;59.50;;;;;;5094175;28;20020;-71
2021/01/16 09:49:06;;;;;;;8.85;6.00;;;15.60;59.30;;;;;;5094335;28;20025;-72
2021/01/16 09:51:34;;;;;;;10.55;7.78;;;15.70;58.70;;;;;;5093373;28;20130;-72
2021/01/16 09:54:11;;;;;;;61.75;44.40;;;15.70;58.30;;;;;;5096538;28;20016;-71
2021/01/16 09:56:49;;;;;;;14.45;7.03;;;15.80;58.10;;;;;;5111702;28;20019;-72
2021/01/16 09:59:24;;;;;;;10.75;6.38;;;15.80;57.70;;;;;;5107823;28;20031;-72
2021/01/16 10:02:13;;;;;;;80.53;41.45;;;16.20;57.20;;;;;;5107854;28;20044;-73
2021/01/16 10:04:41;;;;;;;29.52;16.60;;;16.60;56.80;;;;;;5102151;28;20106;-72
2021/01/16 10:07:11;;;;;;;8.85;5.85;;;16.90;56.30;;;;;;5079434;28;20111;-72
2021/01/16 10:09:44;;;;;;;19.38;11.02;;;17.20;55.90;;;;;;5101526;28;20020;-72
2021/01/16 10:12:33;;;;;;;14.95;7.75;;;16.90;55.60;;;;;;5097803;28;20028;-72
2021/01/16 10:15:05;;;;;;;5.93;4.30;;;17.40;55.20;;;;;;5088823;28;20692;-72
2021/01/16 10:17:32;;;;;;;27.55;14.43;;;17.60;54.30;;;;;;5071368;28;20028;-72
2021/01/16 10:20:14;;;;;;;40.53;21.85;;;17.60;55.30;;;;;;5090123;28;20039;-72
2021/01/16 10:23:03;;;;;;;36.15;19.40;;;18.30;54.00;;;;;;5090751;28;20020;-71
2021/01/16 10:25:47;;;;;;;27.50;14.25;;;19.10;52.60;;;;;;5078016;28;20029;-72
2021/01/16 10:28:26;;;;;;;19.35;10.50;;;19.70;51.30;;;;;;5082624;28;20032;-72
2021/01/16 10:31:17;;;;;;;6.15;4.35;;;19.70;50.90;;;;;;5091760;28;20108;-72
2021/01/16 10:33:45;;;;;;;41.30;22.77;;;20.00;51.00;;;;;;5094319;28;20043;-72
2021/01/16 10:36:13;;;;;;;43.83;21.98;;;19.80;50.30;;;;;;5108502;28;20059;-72
2021/01/16 10:39:07;;;;;;;18.63;11.35;;;20.10;49.90;;;;;;5108211;28;20023;-72
2021/01/16 10:41:35;;;;;;;9.77;5.30;;;20.70;49.50;;;;;;5107715;28;20622;-72
2021/01/16 10:44:06;;;;;;;6.95;2.80;;;21.40;49.00;;;;;;5110785;28;20120;-72
2021/01/16 10:46:44;;;;;;;16.98;10.20;;;21.80;47.10;;;;;;5110022;28;20012;-72
2021/01/16 10:49:24;;;;;;;8.63;5.60;;;22.50;46.80;;;;;;5092012;28;20390;-73
2021/01/16 10:51:59;;;;;;;8.90;4.00;;;23.50;46.40;;;;;;5106270;28;20111;-72
2021/01/16 10:54:25;;;;;;;4.93;3.10;;;23.90;45.20;;;;;;5103591;28;20494;-72
2021/01/16 10:56:59;;;;;;;3.28;2.75;;;23.90;44.30;;;;;;5107965;28;20034;-73
2021/01/16 10:59:30;;;;;;;3.50;2.45;;;23.80;44.70;;;;;;5100836;28;20016;-72
2021/01/16 11:01:57;;;;;;;4.63;3.10;;;24.40;44.30;;;;;;5099624;28;20059;-71
2021/01/16 11:04:25;;;;;;;4.75;2.80;;;25.00;43.00;;;;;;5105637;28;20058;-71
2021/01/16 11:07:02;;;;;;;6.68;3.35;;;25.50;42.80;;;;;;5094813;28;22016;-72
2021/01/16 11:09:34;;;;;;;6.47;4.35;;;25.70;42.30;;;;;;5091665;28;20020;-72
2021/01/16 11:12:06;;;;;;;4.68;3.17;;;24.70;42.80;;;;;;5092203;28;20012;-72
2021/01/16 11:14:40;;;;;;;8.48;3.03;;;23.60;44.00;;;;;;5103052;28;20028;-72
2021/01/16 11:17:11;;;;;;;5.75;3.17;;;22.60;44.90;;;;;;5108683;28;20379;-72
2021/01/16 11:19:43;;;;;;;5.63;3.22;;;22.50;45.50;;;;;;5111932;28;20011;-72
2021/01/16 11:22:15;;;;;;;5.85;3.38;;;22.40;45.70;;;;;;5110137;28;20031;-72
2021/01/16 11:24:53;;;;;;;6.40;3.95;;;22.90;45.30;;;;;;5107197;28;20103;-74
2021/01/16 11:27:26;;;;;;;6.13;3.42;;;23.20;44.80;;;;;;5104221;28;20024;-73
2021/01/16 11:29:54;;;;;;;4.80;3.80;;;23.10;45.30;;;;;;5105888;28;20023;-72
2021/01/16 11:32:22;;;;;;;6.13;4.40;;;22.60;45.20;;;;;;5095584;28;20032;-72
2021/01/16 11:35:03;;;;;;;4.50;3.30;;;21.80;46.20;;;;;;5091406;28;20020;-72
2021/01/16 11:37:47;;;;;;;6.45;3.40;;;21.10;46.80;;;;;;5099019;28;20053;-74
2021/01/16 11:40:22;;;;;;;4.40;3.33;;;20.50;47.30;;;;;;5102682;28;20020;-74
2021/01/16 11:42:52;;;;;;;4.70;3.45;;;19.70;48.10;;;;;;5098035;28;20053;-74
2021/01/16 11:45:19;;;;;;;5.37;3.97;;;19.20;48.30;;;;;;5109323;28;20034;-73
2021/01/16 11:47:52;;;;;;;5.85;3.60;;;18.60;49.50;;;;;;5095565;28;20032;-72
2021/01/16 11:50:20;;;;;;;8.30;3.70;;;17.90;50.30;;;;;;5096582;28;20036;-72
2021/01/16 11:52:47;;;;;;;5.53;4.00;;;17.20;51.50;;;;;;5109577;28;20119;-73
2021/01/16 11:55:13;;;;;;;10.55;4.47;;;16.70;52.40;;;;;;5096369;28;20066;-72
2021/01/16 11:57:41;;;;;;;8.27;4.47;;;16.20;53.50;;;;;;5110824;28;20022;-73
2021/01/16 12:00:08;;;;;;;9.02;4.00;;;15.70;54.30;;;;;;5109253;28;20031;-72
2021/01/16 12:02:34;;;;;;;9.32;4.10;;;15.60;55.10;;;;;;5104203;28;20039;-72
2021/01/16 12:05:00;;;;;;;9.60;4.88;;;15.20;56.00;;;;;;5104024;28;20110;-72
2021/01/16 12:07:26;;;;;;;10.10;4.82;;;14.80;57.30;;;;;;5096441;28;20540;-72
2021/01/16 12:09:57;;;;;;;7.80;4.75;;;14.60;57.50;;;;;;5100843;28;20429;-72
2021/01/16 12:12:31;;;;;;;6.60;4.32;;;14.30;57.90;;;;;;5103587;28;20030;-73
2021/01/16 12:14:57;;;;;;;6.07;3.90;;;14.00;58.70;;;;;;5105389;28;20097;-72
2021/01/16 12:17:28;;;;;;;18.52;5.20;;;13.80;58.60;;;;;;5106693;28;20051;-72
2021/01/16 12:19:54;;;;;;;6.22;4.03;;;13.50;59.80;;;;;;5106448;28;20464;-73
2021/01/16 12:22:27;;;;;;;6.10;4.30;;;13.10;60.50;;;;;;5097567;28;20070;-72
2021/01/16 12:24:54;;;;;;;11.20;6.72;;;12.70;61.30;;;;;;5090428;28;20031;-73
2021/01/16 12:27:22;;;;;;;8.32;4.70;;;12.40;62.90;;;;;;5090796;28;20020;-72
2021/01/16 12:29:54;;;;;;;12.18;5.35;;;12.20;63.10;;;;;;5101496;28;20041;-73
2021/01/16 12:32:19;;;;;;;;;;;12.00;63.70;;;;;;5090559;28;20039;-73
2021/01/16 12:34:56;;;;;;;9.07;5.13;;;11.90;63.70;;;;;;5095915;28;19912;-72
2021/01/16 12:37:33;;;;;;;7.63;4.38;;;11.70;64.00;;;;;;5104323;28;20016;-72
2021/01/16 12:40:00;;;;;;;7.95;5.00;;;11.50;64.50;;;;;;5091671;28;20090;-71
2021/01/16 12:42:26;;;;;;;7.95;4.78;;;11.40;64.40;;;;;;5097874;28;20054;-71
2021/01/16 12:45:01;;;;;;;6.43;4.35;;;11.20;65.30;;;;;;5106256;28;20028;-71
2021/01/16 12:47:28;;;;;;;7.35;4.50;;;11.00;66.20;;;;;;5106147;28;20036;-72
2021/01/16 12:49:54;;;;;;;9.85;5.03;;;10.90;66.80;;;;;;5103886;28;20434;-72
2021/01/16 12:52:28;;;;;;;13.23;4.82;;;10.70;67.30;;;;;;5105300;28;20028;-72
2021/01/16 12:55:00;;;;;;;7.00;4.70;;;10.60;68.10;;;;;;5108740;28;20384;-71
2021/01/16 12:57:34;;;;;;;6.95;4.78;;;10.50;68.70;;;;;;5095962;28;20036;-72
2021/01/16 13:00:00;;;;;;;7.60;4.85;;;10.40;69.40;;;;;;5093799;28;20028;-72
2021/01/16 13:02:28;;;;;;;9.20;4.95;;;10.30;70.00;;;;;;5096357;28;20074;-71